Time;durP1;ratioP1;P1;durP2;ratioP2;P2;SDS_P1;SDS_P2;PMS_P1;PMS_P2;Temp;Humidity;BMP_temperature;BMP_pressure;BME280_temperature;BME280_humidity;BME280_pressure;Samples;Min_cycle;Max_cycle;Signal;HPM_P1;HPM_P2
2023/07/24 00:00:52;;;;;;;4.00;3.47;;;;;;;;;;5038526;28;20050;-64
2023/07/24 00:03:18;;;;;;;4.85;3.67;;;;;;;;;;5041948;28;20053;-65
2023/07/24 00:05:45;;;;;;;3.72;3.33;;;;;;;;;;5041521;28;20232;-63
2023/07/24 00:08:11;;;;;;;4.60;3.30;;;;;;;;;;5040877;28;20704;-65
2023/07/24 00:10:38;;;;;;;5.00;3.58;;;;;;;;;;5042383;28;20330;-65
2023/07/24 00:13:05;;;;;;;3.97;3.33;;;;;;;;;;5036372;28;20053;-65
2023/07/24 00:15:31;;;;;;;4.22;3.33;;;;;;;;;;5041641;28;20062;-62
2023/07/24 00:17:58;;;;;;;3.85;3.40;;;;;;;;;;5042436;28;20144;-65
2023/07/24 00:20:25;;;;;;;5.55;3.10;;;;;;;;;;5041144;28;20577;-60
2023/07/24 00:22:52;;;;;;;3.47;3.05;;;;;;;;;;5041092;28;20516;-64
2023/07/24 00:25:18;;;;;;;4.28;2.95;;;;;;;;;;5038876;28;20527;-61
2023/07/24 00:27:45;;;;;;;5.43;3.38;;;;;;;;;;5023992;28;20601;-66
2023/07/24 00:30:11;;;;;;;4.15;3.30;;;;;;;;;;5041364;28;20652;-61
2023/07/24 00:32:38;;;;;;;4.07;3.30;;;;;;;;;;5040456;28;20323;-62
2023/07/24 00:35:05;;;;;;;3.70;3.20;;;;;;;;;;5041957;28;20495;-64
2023/07/24 00:37:31;;;;;;;4.50;3.30;;;;;;;;;;5041684;28;20111;-66
2023/07/24 00:39:58;;;;;;;5.45;2.70;;;;;;;;;;5033559;28;20555;-64
2023/07/24 00:42:24;;;;;;;3.55;3.20;;;;;;;;;;5041537;28;20123;-62
2023/07/24 00:44:51;;;;;;;3.58;3.00;;;;;;;;;;5036958;28;20145;-65
2023/07/24 00:47:17;;;;;;;4.63;2.88;;;;;;;;;;5040763;28;20041;-66
2023/07/24 00:49:44;;;;;;;4.97;3.63;;;;;;;;;;5041206;28;20441;-65
2023/07/24 00:52:11;;;;;;;4.85;3.13;;;;;;;;;;5038475;28;20054;-65
2023/07/24 00:54:38;;;;;;;5.13;3.33;;;;;;;;;;5041742;28;20139;-64
2023/07/24 00:57:05;;;;;;;3.85;2.78;;;;;;;;;;5041184;28;20053;-65
2023/07/24 00:59:31;;;;;;;3.92;2.92;;;;;;;;;;5042314;28;20077;-65
2023/07/24 01:01:58;;;;;;;3.60;3.10;;;;;;;;;;5042527;28;20530;-63
2023/07/24 01:04:25;;;;;;;3.75;2.78;;;;;;;;;;5042078;28;20057;-62
2023/07/24 01:06:51;;;;;;;3.92;3.20;;;;;;;;;;5034207;28;20604;-65
2023/07/24 01:09:17;;;;;;;4.13;3.30;;;;;;;;;;5039717;28;20079;-63
2023/07/24 01:11:47;;;;;;;3.92;3.42;;;;;;;;;;5034145;28;20049;-63
2023/07/24 01:14:26;;;;;;;4.97;3.72;;;;;;;;;;5037694;28;20699;-64
2023/07/24 01:16:54;;;;;;;4.20;3.50;;;;;;;;;;5031995;28;20157;-66
2023/07/24 01:19:39;;;;;;;5.15;3.30;;;;;;;;;;5038323;28;20089;-63
2023/07/24 01:22:24;;;;;;;4.00;2.92;;;;;;;;;;5035557;28;20424;-64
2023/07/24 01:25:06;;;;;;;5.68;3.35;;;;;;;;;;5034137;28;20235;-64
2023/07/24 01:27:33;;;;;;;5.00;3.47;;;;;;;;;;5041492;28;20437;-60
2023/07/24 01:29:59;;;;;;;3.03;2.72;;;;;;;;;;5041186;28;20064;-64
2023/07/24 01:32:26;;;;;;;3.75;3.08;;;;;;;;;;5040455;28;20144;-62
2023/07/24 01:34:53;;;;;;;3.78;3.05;;;;;;;;;;5038894;28;20080;-64
2023/07/24 01:37:20;;;;;;;4.13;3.33;;;;;;;;;;5043362;28;20179;-65
2023/07/24 01:39:47;;;;;;;3.67;2.90;;;;;;;;;;5043834;28;20583;-66
2023/07/24 01:42:14;;;;;;;4.68;3.15;;;;;;;;;;5036097;28;20061;-63
2023/07/24 01:44:40;;;;;;;4.72;3.25;;;;;;;;;;5044750;28;20152;-61
2023/07/24 01:47:06;;;;;;;4.22;3.15;;;;;;;;;;5035777;28;20060;-65
2023/07/24 01:49:33;;;;;;;7.38;3.35;;;;;;;;;;5044487;28;20123;-61
2023/07/24 01:51:59;;;;;;;4.05;2.85;;;;;;;;;;5044249;28;20056;-63
2023/07/24 01:54:26;;;;;;;3.83;3.00;;;;;;;;;;5043901;28;20140;-64
2023/07/24 01:56:52;;;;;;;3.10;2.80;;;;;;;;;;5044495;28;20133;-63
2023/07/24 01:59:19;;;;;;;4.03;3.00;;;;;;;;;;5038882;28;20045;-64
2023/07/24 02:01:45;;;;;;;4.55;3.20;;;;;;;;;;5044045;28;20077;-65
2023/07/24 02:04:11;;;;;;;4.55;2.67;;;;;;;;;;5047388;28;20112;-65
2023/07/24 02:06:38;;;;;;;3.28;2.55;;;;;;;;;;5044577;28;20049;-62
2023/07/24 02:09:05;;;;;;;4.55;3.30;;;;;;;;;;5043522;28;20057;-63
2023/07/24 02:11:31;;;;;;;4.47;2.80;;;;;;;;;;5043499;28;20065;-65
2023/07/24 02:13:57;;;;;;;3.70;3.30;;;;;;;;;;5043972;28;20617;-62
2023/07/24 02:16:24;;;;;;;3.90;3.42;;;;;;;;;;5030695;28;20140;-63
2023/07/24 02:18:50;;;;;;;5.13;2.95;;;;;;;;;;5043082;28;20049;-64
2023/07/24 02:21:17;;;;;;;3.55;3.03;;;;;;;;;;5044320;28;20065;-65
2023/07/24 02:23:43;;;;;;;3.90;2.95;;;;;;;;;;5042005;28;20133;-63
2023/07/24 02:26:09;;;;;;;3.55;2.88;;;;;;;;;;5043791;28;20073;-60
2023/07/24 02:28:36;;;;;;;4.50;3.08;;;;;;;;;;5043301;28;20108;-62
2023/07/24 02:31:02;;;;;;;3.90;3.15;;;;;;;;;;5044091;28;20053;-61
2023/07/24 02:33:29;;;;;;;3.60;3.30;;;;;;;;;;5034500;28;20050;-65
2023/07/24 02:35:55;;;;;;;5.13;3.65;;;;;;;;;;5033770;28;20496;-64
2023/07/24 02:38:22;;;;;;;3.50;3.10;;;;;;;;;;5041739;28;20183;-62
2023/07/24 02:40:48;;;;;;;5.43;3.10;;;;;;;;;;5027760;28;20140;-64
2023/07/24 02:43:15;;;;;;;3.83;2.90;;;;;;;;;;5040367;28;20520;-64
2023/07/24 02:45:41;;;;;;;3.92;3.42;;;;;;;;;;5043690;28;20050;-65
2023/07/24 02:48:08;;;;;;;3.88;3.28;;;;;;;;;;5041726;28;20057;-63
2023/07/24 02:50:35;;;;;;;3.58;3.17;;;;;;;;;;5034823;28;20512;-64
2023/07/24 02:53:01;;;;;;;4.78;3.10;;;;;;;;;;5042805;28;20054;-62
2023/07/24 02:55:28;;;;;;;4.95;3.20;;;;;;;;;;5043602;28;20561;-62
2023/07/24 02:57:54;;;;;;;4.43;3.58;;;;;;;;;;5043094;28;20153;-63
2023/07/24 03:00:21;;;;;;;4.65;3.13;;;;;;;;;;5042065;28;20097;-64
2023/07/24 03:02:47;;;;;;;4.15;3.50;;;;;;;;;;5038387;28;20515;-64
2023/07/24 03:05:14;;;;;;;4.15;3.53;;;;;;;;;;5033008;28;20053;-61
2023/07/24 03:07:40;;;;;;;4.07;3.25;;;;;;;;;;5043549;28;20058;-63
2023/07/24 03:10:07;;;;;;;4.15;3.47;;;;;;;;;;5037383;28;20546;-61
2023/07/24 03:12:34;;;;;;;5.30;3.28;;;;;;;;;;5042442;28;20520;-61
2023/07/24 03:15:01;;;;;;;4.60;4.20;;;;;;;;;;5042908;28;20057;-61
2023/07/24 03:17:27;;;;;;;7.47;3.47;;;;;;;;;;5042290;28;20534;-66
2023/07/24 03:19:54;;;;;;;5.15;4.00;;;;;;;;;;5042754;28;20050;-62
2023/07/24 03:22:20;;;;;;;4.47;3.70;;;;;;;;;;5039628;28;20530;-63
2023/07/24 03:24:47;;;;;;;6.00;3.92;;;;;;;;;;5042009;28;20066;-64
2023/07/24 03:27:13;;;;;;;6.00;4.07;;;;;;;;;;5042661;28;20578;-65
2023/07/24 03:29:40;;;;;;;4.47;3.72;;;;;;;;;;5042514;28;20080;-61
2023/07/24 03:32:07;;;;;;;5.82;3.90;;;;;;;;;;5042485;28;20050;-64
2023/07/24 03:34:33;;;;;;;6.03;3.53;;;;;;;;;;5043701;28;20060;-61
2023/07/24 03:37:00;;;;;;;5.00;4.03;;;;;;;;;;5041390;28;20099;-65
2023/07/24 03:39:26;;;;;;;3.95;3.50;;;;;;;;;;5042774;28;20068;-63
2023/07/24 03:41:53;;;;;;;3.58;3.20;;;;;;;;;;5042476;28;20546;-61
2023/07/24 03:44:19;;;;;;;4.63;3.75;;;;;;;;;;5043706;28;20053;-65
2023/07/24 03:46:45;;;;;;;6.07;3.78;;;;;;;;;;5041011;28;20133;-61
2023/07/24 03:49:12;;;;;;;5.13;4.05;;;;;;;;;;5041828;28;20061;-62
2023/07/24 03:51:39;;;;;;;5.03;3.60;;;;;;;;;;5042749;28;20133;-61
2023/07/24 03:54:05;;;;;;;5.10;3.83;;;;;;;;;;5042458;28;20291;-65
2023/07/24 03:56:31;;;;;;;6.47;4.22;;;;;;;;;;5042378;28;20085;-65
2023/07/24 03:58:58;;;;;;;8.73;4.20;;;;;;;;;;5037246;28;20054;-62
2023/07/24 04:01:24;;;;;;;5.70;4.30;;;;;;;;;;5041530;28;20056;-64
2023/07/24 04:03:52;;;;;;;4.90;4.40;;;;;;;;;;5041698;28;20100;-62
2023/07/24 04:06:18;;;;;;;6.47;4.35;;;;;;;;;;5042888;28;20053;-64
2023/07/24 04:08:45;;;;;;;7.10;4.40;;;;;;;;;;5042209;28;20058;-62
2023/07/24 04:11:11;;;;;;;5.43;4.25;;;;;;;;;;5040122;28;20232;-65
2023/07/24 04:13:38;;;;;;;7.88;4.50;;;;;;;;;;5042268;28;20061;-64
2023/07/24 04:16:05;;;;;;;5.50;4.63;;;;;;;;;;5042657;28;20060;-65
2023/07/24 04:18:31;;;;;;;5.50;4.32;;;;;;;;;;5040587;28;20049;-65
2023/07/24 04:20:57;;;;;;;7.72;4.40;;;;;;;;;;5039699;28;20511;-65
2023/07/24 04:23:24;;;;;;;7.28;4.70;;;;;;;;;;5038220;28;20503;-65
2023/07/24 04:25:51;;;;;;;5.38;4.63;;;;;;;;;;5041970;28;20057;-63
2023/07/24 04:28:18;;;;;;;6.00;4.53;;;;;;;;;;5041674;28;20281;-63
2023/07/24 04:30:44;;;;;;;7.57;4.93;;;;;;;;;;5041101;28;20049;-64
2023/07/24 04:33:11;;;;;;;8.02;5.22;;;;;;;;;;5040411;28;20058;-65
2023/07/24 04:35:37;;;;;;;7.60;4.72;;;;;;;;;;5041227;28;20057;-61
2023/07/24 04:38:03;;;;;;;6.05;4.65;;;;;;;;;;5041423;28;20096;-64
2023/07/24 04:40:30;;;;;;;6.57;4.65;;;;;;;;;;5041591;28;20144;-65
2023/07/24 04:42:56;;;;;;;7.45;4.95;;;;;;;;;;5040613;28;20595;-62
2023/07/24 04:45:23;;;;;;;6.93;4.75;;;;;;;;;;5038363;28;20045;-66
2023/07/24 04:47:49;;;;;;;7.70;5.13;;;;;;;;;;5041165;28;20054;-64
2023/07/24 04:50:16;;;;;;;8.77;4.80;;;;;;;;;;5039528;28;20136;-58
2023/07/24 04:52:42;;;;;;;4.78;4.15;;;;;;;;;;5039739;28;20084;-64
2023/07/24 04:55:08;;;;;;;8.10;4.30;;;;;;;;;;5040383;28;20554;-61
2023/07/24 04:57:35;;;;;;;7.15;4.45;;;;;;;;;;5040109;28;20157;-60
2023/07/24 05:00:03;;;;;;;8.38;5.15;;;;;;;;;;5041743;28;20922;-65
2023/07/24 05:02:29;;;;;;;8.98;4.45;;;;;;;;;;5040719;28;20053;-63
2023/07/24 05:04:56;;;;;;;6.43;4.50;;;;;;;;;;5041282;28;20058;-65
2023/07/24 05:07:22;;;;;;;7.85;4.65;;;;;;;;;;5042112;28;20503;-64
2023/07/24 05:09:48;;;;;;;7.50;5.00;;;;;;;;;;5042281;28;20049;-63
2023/07/24 05:12:15;;;;;;;6.90;4.70;;;;;;;;;;5040596;28;20097;-66
2023/07/24 05:14:41;;;;;;;4.72;4.20;;;;;;;;;;5042026;28;20629;-65
2023/07/24 05:17:08;;;;;;;8.52;4.80;;;;;;;;;;5041572;28;20337;-60
2023/07/24 05:19:35;;;;;;;10.85;4.82;;;;;;;;;;5040916;28;20103;-66
2023/07/24 05:22:01;;;;;;;8.88;5.20;;;;;;;;;;5037740;28;20057;-65
2023/07/24 05:24:28;;;;;;;6.65;4.47;;;;;;;;;;5034608;28;20136;-65
2023/07/24 05:26:54;;;;;;;7.30;5.03;;;;;;;;;;5049889;28;20053;-59
2023/07/24 05:29:21;;;;;;;7.03;5.22;;;;;;;;;;5041069;28;20164;-65
2023/07/24 05:31:48;;;;;;;9.55;4.60;;;;;;;;;;5030398;28;20147;-65
2023/07/24 05:34:14;;;;;;;7.25;4.90;;;;;;;;;;5036758;28;20054;-64
2023/07/24 05:36:41;;;;;;;7.20;4.57;;;;;;;;;;5040312;28;20161;-64
2023/07/24 05:39:08;;;;;;;6.93;4.75;;;;;;;;;;5038226;28;20059;-65
2023/07/24 05:41:34;;;;;;;7.85;4.55;;;;;;;;;;5040847;28;20053;-64
2023/07/24 05:44:00;;;;;;;9.63;5.32;;;;;;;;;;5039152;28;20496;-62
2023/07/24 05:46:27;;;;;;;6.93;4.20;;;;;;;;;;5030720;28;20057;-65
2023/07/24 05:48:54;;;;;;;9.10;5.45;;;;;;;;;;5034810;28;20058;-65
2023/07/24 05:51:20;;;;;;;7.75;4.47;;;;;;;;;;5041589;28;20680;-66
2023/07/24 05:53:47;;;;;;;6.05;4.55;;;;;;;;;;5040112;28;20237;-63
2023/07/24 05:56:13;;;;;;;7.00;4.45;;;;;;;;;;5037893;28;20049;-66
2023/07/24 05:58:40;;;;;;;6.60;4.70;;;;;;;;;;5043270;28;20053;-61
2023/07/24 06:01:09;;;;;;;9.13;4.75;;;;;;;;;;5040400;28;20115;-62
2023/07/24 06:03:36;;;;;;;7.68;4.57;;;;;;;;;;5030329;28;20501;-62
2023/07/24 06:06:03;;;;;;;9.52;5.53;;;;;;;;;;5039801;28;20050;-61
2023/07/24 06:08:29;;;;;;;8.57;4.43;;;;;;;;;;5034075;28;20589;-62
2023/07/24 06:10:56;;;;;;;5.97;3.88;;;;;;;;;;5037445;28;20045;-64
2023/07/24 06:13:22;;;;;;;7.88;4.28;;;;;;;;;;5053132;28;20085;-65
2023/07/24 06:15:49;;;;;;;10.15;5.18;;;;;;;;;;5041075;28;20081;-63
2023/07/24 06:18:16;;;;;;;9.55;4.75;;;;;;;;;;5040733;28;20053;-63
2023/07/24 06:20:42;;;;;;;11.52;4.20;;;;;;;;;;5032692;28;20088;-62
2023/07/24 06:23:08;;;;;;;7.32;3.60;;;;;;;;;;5044206;28;20100;-65
2023/07/24 06:25:35;;;;;;;6.07;3.95;;;;;;;;;;5044115;28;20057;-63
2023/07/24 06:28:01;;;;;;;5.60;3.63;;;;;;;;;;5043537;28;20172;-64
2023/07/24 06:30:28;;;;;;;6.93;4.43;;;;;;;;;;5040967;28;20050;-65
2023/07/24 06:32:55;;;;;;;6.30;3.70;;;;;;;;;;5044489;28;20081;-64
2023/07/24 06:35:21;;;;;;;8.52;3.85;;;;;;;;;;5044508;28;20145;-66
2023/07/24 06:37:48;;;;;;;6.40;3.83;;;;;;;;;;5042784;28;20504;-61
2023/07/24 06:40:14;;;;;;;5.93;3.83;;;;;;;;;;5042684;28;20057;-63
2023/07/24 06:42:41;;;;;;;6.30;3.90;;;;;;;;;;5043536;28;20135;-63
2023/07/24 06:45:07;;;;;;;9.68;4.63;;;;;;;;;;5043450;28;20065;-63
2023/07/24 06:47:34;;;;;;;6.00;4.05;;;;;;;;;;5043954;28;20563;-65
2023/07/24 06:50:01;;;;;;;10.20;3.97;;;;;;;;;;5035271;28;20045;-63
2023/07/24 06:52:28;;;;;;;14.00;4.35;;;;;;;;;;5043609;28;20567;-64
2023/07/24 06:54:54;;;;;;;6.22;3.80;;;;;;;;;;5043754;28;20581;-64
2023/07/24 06:57:21;;;;;;;8.77;4.03;;;;;;;;;;5043650;28;20057;-65
2023/07/24 06:59:47;;;;;;;8.20;4.35;;;;;;;;;;5041803;28;20053;-66
2023/07/24 07:02:13;;;;;;;6.10;3.67;;;;;;;;;;5038637;28;20112;-64
2023/07/24 07:04:40;;;;;;;8.60;4.18;;;;;;;;;;5046488;28;20127;-60
2023/07/24 07:07:06;;;;;;;8.48;3.90;;;;;;;;;;5042431;28;20057;-64
2023/07/24 07:09:33;;;;;;;7.28;3.35;;;;;;;;;;5042977;28;20050;-63
2023/07/24 07:11:59;;;;;;;10.30;4.38;;;;;;;;;;5041452;28;20048;-63
2023/07/24 07:14:26;;;;;;;5.05;3.70;;;;;;;;;;5041630;28;20057;-60
2023/07/24 07:16:52;;;;;;;7.95;3.53;;;;;;;;;;5055492;28;20496;-62
2023/07/24 07:19:18;;;;;;;10.00;3.92;;;;;;;;;;5040777;28;20442;-62
2023/07/24 07:21:45;;;;;;;9.95;3.97;;;;;;;;;;5041783;28;20077;-66
2023/07/24 07:24:11;;;;;;;6.50;3.83;;;;;;;;;;5042588;28;20053;-63
2023/07/24 07:26:38;;;;;;;8.55;3.90;;;;;;;;;;5043742;28;20049;-64
2023/07/24 07:29:05;;;;;;;9.75;4.63;;;;;;;;;;5041900;28;20065;-61
2023/07/24 07:31:31;;;;;;;8.75;4.07;;;;;;;;;;5041963;28;20053;-65
2023/07/24 07:33:58;;;;;;;7.38;3.60;;;;;;;;;;5042675;28;20196;-63
2023/07/24 07:36:24;;;;;;;5.45;3.55;;;;;;;;;;5049068;28;20471;-62
2023/07/24 07:38:51;;;;;;;10.13;4.15;;;;;;;;;;5042881;28;20428;-64
2023/07/24 07:41:17;;;;;;;8.10;3.58;;;;;;;;;;5041580;28;20104;-63
2023/07/24 07:43:43;;;;;;;7.22;4.25;;;;;;;;;;5041866;28;20500;-64
2023/07/24 07:46:11;;;;;;;5.05;3.35;;;;;;;;;;5054016;28;20667;-61
2023/07/24 07:48:37;;;;;;;8.75;4.47;;;;;;;;;;5042366;28;20053;-63
2023/07/24 07:51:04;;;;;;;5.47;4.28;;;;;;;;;;5041437;28;20049;-58
2023/07/24 07:53:31;;;;;;;5.47;3.58;;;;;;;;;;5043054;28;20495;-62
2023/07/24 07:55:59;;;;;;;6.82;4.13;;;;;;;;;;5041975;28;20061;-65
2023/07/24 07:58:26;;;;;;;5.47;3.70;;;;;;;;;;5043596;28;20582;-64
2023/07/24 08:00:52;;;;;;;6.65;3.70;;;;;;;;;;5040913;28;20396;-64
2023/07/24 08:03:19;;;;;;;7.70;4.35;;;;;;;;;;5042623;28;20053;-65
2023/07/24 08:05:46;;;;;;;10.77;3.92;;;;;;;;;;5037681;28;20068;-64
2023/07/24 08:08:12;;;;;;;5.38;3.80;;;;;;;;;;5041981;28;20045;-67
2023/07/24 08:10:39;;;;;;;5.38;3.95;;;;;;;;;;5040839;28;20795;-64
2023/07/24 08:13:07;;;;;;;9.57;4.57;;;;;;;;;;5037621;28;20519;-66
2023/07/24 08:15:34;;;;;;;7.80;4.20;;;;;;;;;;5039152;28;20559;-62
2023/07/24 08:18:00;;;;;;;5.65;3.95;;;;;;;;;;5041373;28;20058;-63
2023/07/24 08:20:27;;;;;;;5.80;3.88;;;;;;;;;;5041647;28;20061;-65
2023/07/24 08:22:53;;;;;;;9.25;3.40;;;;;;;;;;5043906;28;20140;-62
2023/07/24 08:25:20;;;;;;;6.43;4.50;;;;;;;;;;5039831;28;20638;-63
2023/07/24 08:27:46;;;;;;;7.38;4.07;;;;;;;;;;5037445;28;20550;-65
2023/07/24 08:30:31;;;;;;;6.88;3.70;;;;;;;;;;5040141;28;20135;-62
2023/07/24 08:32:59;;;;;;;5.65;4.00;;;;;;;;;;5041957;28;20467;-65
2023/07/24 08:35:26;;;;;;;8.35;3.90;;;;;;;;;;5040818;28;20081;-65
2023/07/24 08:37:52;;;;;;;7.28;4.18;;;;;;;;;;5041487;28;20580;-63
2023/07/24 08:40:18;;;;;;;7.13;4.38;;;;;;;;;;5039405;28;20129;-61
2023/07/24 08:42:46;;;;;;;8.05;4.35;;;;;;;;;;5041968;28;20053;-65
2023/07/24 08:45:13;;;;;;;8.80;3.80;;;;;;;;;;5041986;28;20104;-65
2023/07/24 08:47:42;;;;;;;8.00;4.30;;;;;;;;;;5041977;28;20061;-61
2023/07/24 08:50:11;;;;;;;6.28;3.35;;;;;;;;;;5041263;28;20058;-65
2023/07/24 08:52:38;;;;;;;8.65;4.45;;;;;;;;;;5042504;28;20053;-67
2023/07/24 08:55:06;;;;;;;7.13;3.67;;;;;;;;;;5040644;28;20054;-63
2023/07/24 08:57:32;;;;;;;7.72;4.25;;;;;;;;;;5041832;28;20504;-66
2023/07/24 09:00:00;;;;;;;6.80;4.32;;;;;;;;;;5041108;28;20045;-61
2023/07/24 09:02:27;;;;;;;4.53;3.85;;;;;;;;;;5046027;28;20056;-61
2023/07/24 09:04:53;;;;;;;12.00;4.13;;;;;;;;;;5042334;28;20058;-61
2023/07/24 09:07:20;;;;;;;5.97;3.55;;;;;;;;;;5041758;28;20694;-64
2023/07/24 09:09:48;;;;;;;8.13;4.32;;;;;;;;;;5040342;28;20080;-66
2023/07/24 09:12:15;;;;;;;10.75;4.57;;;;;;;;;;5041805;28;20049;-66
2023/07/24 09:14:42;;;;;;;6.63;4.47;;;;;;;;;;5048264;28;20511;-67
2023/07/24 09:17:09;;;;;;;5.65;4.03;;;;;;;;;;5040340;28;20136;-65
2023/07/24 09:19:36;;;;;;;6.30;4.43;;;;;;;;;;5044503;28;20060;-67
2023/07/24 09:22:14;;;;;;;5.25;4.15;;;;;;;;;;5040307;28;20077;-63
2023/07/24 09:24:53;;;;;;;5.63;4.47;;;;;;;;;;5036414;28;20060;-63
2023/07/24 09:27:20;;;;;;;9.48;4.93;;;;;;;;;;5036227;28;20114;-64
2023/07/24 09:29:46;;;;;;;6.43;4.40;;;;;;;;;;5040201;28;20505;-67
2023/07/24 09:32:20;;;;;;;6.30;4.47;;;;;;;;;;5041242;28;20448;-59
2023/07/24 09:34:47;;;;;;;7.22;4.47;;;;;;;;;;5041494;28;20137;-65
2023/07/24 09:37:26;;;;;;;7.68;4.22;;;;;;;;;;5041665;28;20524;-60
2023/07/24 09:39:53;;;;;;;5.05;4.38;;;;;;;;;;5041686;28;20049;-67
2023/07/24 09:42:27;;;;;;;8.82;4.05;;;;;;;;;;5040174;28;20575;-67
2023/07/24 09:44:53;;;;;;;6.00;4.00;;;;;;;;;;5031581;28;20141;-58
2023/07/24 09:47:20;;;;;;;6.13;4.45;;;;;;;;;;5040516;28;20056;-65
2023/07/24 09:49:50;;;;;;;8.63;4.38;;;;;;;;;;5041829;28;20520;-64
2023/07/24 09:52:17;;;;;;;7.85;4.25;;;;;;;;;;5038979;28;20064;-64
2023/07/24 09:54:48;;;;;;;6.65;4.32;;;;;;;;;;5037535;28;20121;-67
2023/07/24 09:57:16;;;;;;;5.93;4.00;;;;;;;;;;5043854;28;20546;-67
2023/07/24 09:59:48;;;;;;;9.93;4.55;;;;;;;;;;5038627;28;20207;-63
2023/07/24 10:02:15;;;;;;;7.07;5.13;;;;;;;;;;5043834;28;20589;-64
2023/07/24 10:04:42;;;;;;;7.93;4.95;;;;;;;;;;5044190;28;20057;-67
2023/07/24 10:07:08;;;;;;;8.73;4.13;;;;;;;;;;5043343;28;20049;-61
2023/07/24 10:09:36;;;;;;;7.10;5.00;;;;;;;;;;5044028;28;20054;-62
2023/07/24 10:12:03;;;;;;;6.95;4.25;;;;;;;;;;5048685;28;20064;-66
2023/07/24 10:14:30;;;;;;;7.13;4.07;;;;;;;;;;5045965;28;20064;-64
2023/07/24 10:16:56;;;;;;;6.45;3.75;;;;;;;;;;5042694;28;20053;-65
2023/07/24 10:19:23;;;;;;;7.20;4.85;;;;;;;;;;5039133;28;20057;-67
2023/07/24 10:21:51;;;;;;;5.70;4.32;;;;;;;;;;5043649;28;20558;-65
2023/07/24 10:24:17;;;;;;;8.20;4.50;;;;;;;;;;5053939;28;20139;-66
2023/07/24 10:27:02;;;;;;;6.78;3.50;;;;;;;;;;5043801;28;20056;-64
2023/07/24 10:29:33;;;;;;;8.88;4.10;;;;;;;;;;5034456;28;20054;-66
2023/07/24 10:32:00;;;;;;;5.97;4.10;;;;;;;;;;5041983;28;20428;-66
2023/07/24 10:34:36;;;;;;;7.90;3.75;;;;;;;;;;5043924;28;20522;-62
2023/07/24 10:37:03;;;;;;;9.40;4.50;;;;;;;;;;5032922;28;20054;-62
2023/07/24 10:39:36;;;;;;;5.88;4.00;;;;;;;;;;5044266;28;20173;-60
2023/07/24 10:42:07;;;;;;;6.75;4.18;;;;;;;;;;5043388;28;20045;-63
2023/07/24 10:44:34;;;;;;;5.55;4.43;;;;;;;;;;5043932;28;20061;-67
2023/07/24 10:47:01;;;;;;;7.20;3.83;;;;;;;;;;5044330;28;20487;-65
2023/07/24 10:49:27;;;;;;;4.53;3.88;;;;;;;;;;5043982;28;20136;-65
2023/07/24 10:51:57;;;;;;;4.75;3.58;;;;;;;;;;5037013;28;20061;-62
2023/07/24 10:54:23;;;;;;;4.38;3.50;;;;;;;;;;5038319;28;20139;-66
2023/07/24 10:56:57;;;;;;;5.28;3.80;;;;;;;;;;5044256;28;20107;-63
2023/07/24 10:59:23;;;;;;;7.28;4.22;;;;;;;;;;5035839;28;20417;-66
2023/07/24 11:01:50;;;;;;;6.93;3.90;;;;;;;;;;5050161;28;20103;-66
2023/07/24 11:04:16;;;;;;;9.35;4.13;;;;;;;;;;5050199;28;20053;-68
2023/07/24 11:06:43;;;;;;;5.45;3.45;;;;;;;;;;5049934;28;20508;-64
2023/07/24 11:09:10;;;;;;;6.22;3.88;;;;;;;;;;5039470;28;20046;-68
2023/07/24 11:11:36;;;;;;;5.00;3.55;;;;;;;;;;5040840;28;20109;-67
2023/07/24 11:14:03;;;;;;;4.72;3.45;;;;;;;;;;5039088;28;20167;-66
2023/07/24 11:16:31;;;;;;;7.35;3.95;;;;;;;;;;5041849;28;20053;-67
2023/07/24 11:18:58;;;;;;;7.57;3.63;;;;;;;;;;5032832;28;20447;-66
2023/07/24 11:21:24;;;;;;;6.15;3.63;;;;;;;;;;5041410;28;20108;-67
2023/07/24 11:23:52;;;;;;;6.60;3.50;;;;;;;;;;5041415;28;20555;-66
2023/07/24 11:26:19;;;;;;;5.95;3.80;;;;;;;;;;5032921;28;20057;-68
2023/07/24 11:28:46;;;;;;;7.20;3.60;;;;;;;;;;5040860;28;20074;-67
2023/07/24 11:31:12;;;;;;;9.90;3.90;;;;;;;;;;5041782;28;20060;-66
2023/07/24 11:33:39;;;;;;;8.98;3.75;;;;;;;;;;5043345;28;20053;-67
2023/07/24 11:36:05;;;;;;;7.47;3.67;;;;;;;;;;5042881;28;20147;-61
2023/07/24 11:38:32;;;;;;;12.10;4.13;;;;;;;;;;5043134;28;20132;-63
2023/07/24 11:40:58;;;;;;;6.40;4.05;;;;;;;;;;5042827;28;20058;-64
2023/07/24 11:43:26;;;;;;;5.00;3.83;;;;;;;;;;5041244;28;20562;-64
2023/07/24 11:45:53;;;;;;;7.82;4.32;;;;;;;;;;5040453;28;20053;-64
2023/07/24 11:48:20;;;;;;;8.80;3.50;;;;;;;;;;5042119;28;20141;-64
2023/07/24 11:50:56;;;;;;;8.48;4.18;;;;;;;;;;5041324;28;20057;-66
2023/07/24 11:53:27;;;;;;;8.63;3.58;;;;;;;;;;5045688;28;20515;-65
2023/07/24 11:55:54;;;;;;;5.78;3.53;;;;;;;;;;5042082;28;20053;-63
2023/07/24 11:58:21;;;;;;;5.72;3.50;;;;;;;;;;5044313;28;20057;-66
2023/07/24 12:00:48;;;;;;;6.05;3.67;;;;;;;;;;5030904;28;20459;-65
2023/07/24 12:03:19;;;;;;;7.35;3.80;;;;;;;;;;5042111;28;20068;-65
2023/07/24 12:05:46;;;;;;;6.25;4.15;;;;;;;;;;5042500;28;20057;-67
2023/07/24 12:08:17;;;;;;;5.78;3.55;;;;;;;;;;5042416;28;20088;-66
2023/07/24 12:10:43;;;;;;;5.82;3.58;;;;;;;;;;5042747;28;20496;-66
2023/07/24 12:13:10;;;;;;;6.28;3.65;;;;;;;;;;5029284;28;20534;-60
2023/07/24 12:15:37;;;;;;;7.43;3.72;;;;;;;;;;5041308;28;20509;-63
2023/07/24 12:18:04;;;;;;;9.32;4.38;;;;;;;;;;5026632;28;20054;-66
2023/07/24 12:20:31;;;;;;;4.88;3.20;;;;;;;;;;5041407;28;20049;-66
2023/07/24 12:22:58;;;;;;;6.20;3.47;;;;;;;;;;5042245;28;21178;-66
2023/07/24 12:25:24;;;;;;;7.03;3.88;;;;;;;;;;5060177;28;20060;-63
2023/07/24 12:27:51;;;;;;;5.03;3.40;;;;;;;;;;5045836;28;20081;-63
2023/07/24 12:30:18;;;;;;;6.40;3.90;;;;;;;;;;5046749;28;20088;-63
2023/07/24 12:32:44;;;;;;;7.85;3.85;;;;;;;;;;5041507;28;20420;-61
2023/07/24 12:35:11;;;;;;;5.60;3.58;;;;;;;;;;5034243;28;20405;-66
2023/07/24 12:37:42;;;;;;;4.22;3.42;;;;;;;;;;5041308;28;20056;-66
2023/07/24 12:40:09;;;;;;;8.10;4.32;;;;;;;;;;5041821;28;20103;-65
2023/07/24 12:42:35;;;;;;;12.95;6.25;;;;;;;;;;5030525;28;20041;-64
2023/07/24 12:45:03;;;;;;;10.13;5.25;;;;;;;;;;5041211;28;20104;-61
2023/07/24 12:47:33;;;;;;;10.32;6.15;;;;;;;;;;5042059;28;20050;-62
2023/07/24 12:50:00;;;;;;;7.60;5.57;;;;;;;;;;5041192;28;20061;-58
2023/07/24 12:52:26;;;;;;;9.80;3.55;;;;;;;;;;5040584;28;20053;-61
2023/07/24 12:54:53;;;;;;;5.20;2.72;;;;;;;;;;5041021;28;20064;-64
2023/07/24 12:57:27;;;;;;;2.65;1.85;;;;;;;;;;5042986;28;20533;-61
2023/07/24 12:59:54;;;;;;;2.28;2.08;;;;;;;;;;5052199;28;20057;-63
2023/07/24 13:02:20;;;;;;;5.10;2.72;;;;;;;;;;5038216;28;20618;-65
2023/07/24 13:04:47;;;;;;;5.78;3.40;;;;;;;;;;5042038;28;20064;-59
2023/07/24 13:07:13;;;;;;;3.97;1.65;;;;;;;;;;5041029;28;20065;-65
2023/07/24 13:09:40;;;;;;;3.80;2.33;;;;;;;;;;5038722;28;20496;-61
2023/07/24 13:12:07;;;;;;;2.70;1.77;;;;;;;;;;5040982;28;20085;-63
2023/07/24 13:14:33;;;;;;;2.65;2.25;;;;;;;;;;5041809;28;20184;-57
2023/07/24 13:17:00;;;;;;;5.05;2.83;;;;;;;;;;5041355;28;20060;-64
2023/07/24 13:19:26;;;;;;;4.13;2.80;;;;;;;;;;5041323;28;20053;-63
2023/07/24 13:21:52;;;;;;;5.05;2.97;;;;;;;;;;5039920;28;20385;-61
2023/07/24 13:24:19;;;;;;;6.78;4.15;;;;;;;;;;5039887;28;20534;-65
2023/07/24 13:26:46;;;;;;;6.97;4.10;;;;;;;;;;5027331;28;20064;-62
2023/07/24 13:29:12;;;;;;;7.43;4.88;;;;;;;;;;5042146;28;20057;-64
2023/07/24 13:31:40;;;;;;;7.65;4.68;;;;;;;;;;5044374;28;20440;-63
2023/07/24 13:34:08;;;;;;;6.15;4.53;;;;;;;;;;5043571;28;20143;-61
2023/07/24 13:36:34;;;;;;;6.82;5.13;;;;;;;;;;5043756;28;20057;-63
2023/07/24 13:39:00;;;;;;;7.50;5.13;;;;;;;;;;5040571;28;20050;-65
2023/07/24 13:41:27;;;;;;;7.22;5.45;;;;;;;;;;5043457;28;20057;-62
2023/07/24 13:43:54;;;;;;;8.88;5.55;;;;;;;;;;5039802;28;20155;-62
2023/07/24 13:46:21;;;;;;;8.95;5.30;;;;;;;;;;5043683;28;20049;-63
2023/07/24 13:48:47;;;;;;;9.88;5.97;;;;;;;;;;5045221;28;20164;-65
2023/07/24 13:51:14;;;;;;;6.53;5.00;;;;;;;;;;5055264;28;20061;-63
2023/07/24 13:53:40;;;;;;;6.45;5.45;;;;;;;;;;5041786;28;20049;-57
2023/07/24 13:56:07;;;;;;;7.50;4.78;;;;;;;;;;5044510;28;20544;-63
2023/07/24 13:58:33;;;;;;;9.68;5.00;;;;;;;;;;5046186;28;20095;-62
2023/07/24 14:00:59;;;;;;;8.48;4.65;;;;;;;;;;5034216;28;20607;-63
2023/07/24 14:03:28;;;;;;;8.20;4.47;;;;;;;;;;5039494;28;20053;-63
2023/07/24 14:05:56;;;;;;;7.10;4.05;;;;;;;;;;5042829;28;20088;-62
2023/07/24 14:08:23;;;;;;;7.05;2.95;;;;;;;;;;5042695;28;20085;-63
2023/07/24 14:10:49;;;;;;;3.83;2.53;;;;;;;;;;5042938;28;20060;-63
2023/07/24 14:13:16;;;;;;;2.78;2.58;;;;;;;;;;5037076;28;20140;-61
2023/07/24 14:15:43;;;;;;;3.70;2.47;;;;;;;;;;5032640;28;20055;-63
2023/07/24 14:18:09;;;;;;;5.07;2.35;;;;;;;;;;5038579;28;20049;-62
2023/07/24 14:20:37;;;;;;;5.95;2.28;;;;;;;;;;5040693;28;20149;-63
2023/07/24 14:23:03;;;;;;;4.13;2.90;;;;;;;;;;5043010;28;20097;-61
2023/07/24 14:25:30;;;;;;;4.80;2.50;;;;;;;;;;5042125;28;20057;-61
2023/07/24 14:27:56;;;;;;;5.40;2.65;;;;;;;;;;5042623;28;20605;-64
2023/07/24 14:30:23;;;;;;;2.28;1.88;;;;;;;;;;5046744;28;20053;-59
2023/07/24 14:32:50;;;;;;;2.55;1.98;;;;;;;;;;5041102;28;20532;-61
2023/07/24 14:35:17;;;;;;;2.97;2.33;;;;;;;;;;5049487;28;20089;-63
2023/07/24 14:37:43;;;;;;;4.13;2.38;;;;;;;;;;5042504;28;20053;-62
2023/07/24 14:40:10;;;;;;;5.03;2.28;;;;;;;;;;5035849;28;20603;-63
2023/07/24 14:42:37;;;;;;;7.45;3.25;;;;;;;;;;5038854;28;20092;-62